createdAt,value
2022-10-13T00:01:19.070Z,14.45
2022-10-13T00:03:47.505Z,13.40
2022-10-13T00:06:25.154Z,14.32
2022-10-13T00:08:52.628Z,14.60
2022-10-13T00:11:27.207Z,14.05
2022-10-13T00:14:04.354Z,14.20
2022-10-13T00:16:33.355Z,13.40
2022-10-13T00:19:00.768Z,13.63
2022-10-13T00:21:29.212Z,13.57
2022-10-13T00:23:58.519Z,16.65
2022-10-13T00:26:27.739Z,13.15
2022-10-13T00:28:56.683Z,15.13
2022-10-13T00:31:30.692Z,14.45
2022-10-13T00:34:03.017Z,14.40
2022-10-13T00:36:30.522Z,15.88
2022-10-13T00:38:58.857Z,15.65
2022-10-13T00:41:26.463Z,15.80
2022-10-13T00:44:27.553Z,14.80
2022-10-13T00:46:54.874Z,14.75
2022-10-13T00:49:22.202Z,14.07
2022-10-13T00:51:50.628Z,15.65
2022-10-13T00:54:23.746Z,14.48
2022-10-13T00:56:53.402Z,14.70
2022-10-13T00:59:29.118Z,15.57
2022-10-13T01:01:59.614Z,15.95
2022-10-13T01:04:38.118Z,15.25
2022-10-13T01:07:06.839Z,15.65
2022-10-13T01:09:42.230Z,16.42
2022-10-13T01:12:33.117Z,15.98
2022-10-13T01:15:49.365Z,15.75
2022-10-13T01:19:17.885Z,15.98
2022-10-13T01:22:34.517Z,15.00
2022-10-13T01:26:21.193Z,15.82
2022-10-13T01:29:46.950Z,17.17
2022-10-13T01:33:11.474Z,15.98
2022-10-13T01:36:30.290Z,16.92
2022-10-13T01:39:34.394Z,16.10
2022-10-13T01:42:17.974Z,16.80
2022-10-13T01:44:58.451Z,16.85
2022-10-13T01:47:28.133Z,16.05
2022-10-13T01:49:56.798Z,16.93
2022-10-13T01:52:33.170Z,18.58
2022-10-13T01:55:11.595Z,17.63
2022-10-13T01:57:46.222Z,16.95
2022-10-13T02:00:21.260Z,16.90
2022-10-13T02:03:35.239Z,18.35
2022-10-13T02:06:30.927Z,15.65
2022-10-13T02:09:21.522Z,16.27
2022-10-13T02:12:04.611Z,16.45
2022-10-13T02:14:38.377Z,17.02
2022-10-13T02:17:06.092Z,16.70
2022-10-13T02:19:38.814Z,16.27
2022-10-13T02:22:08.233Z,16.25
2022-10-13T02:24:35.939Z,17.50
2022-10-13T02:27:06.642Z,17.02
2022-10-13T02:32:01.685Z,17.92
2022-10-13T02:34:29.053Z,18.80
2022-10-13T02:36:56.335Z,17.50
2022-10-13T02:39:23.735Z,17.63
2022-10-13T02:41:51.025Z,19.25
2022-10-13T02:44:18.483Z,17.80
2022-10-13T02:46:45.788Z,18.00
2022-10-13T02:49:13.307Z,17.48
2022-10-13T02:51:40.755Z,18.88
2022-10-13T02:54:08.423Z,17.98
2022-10-13T02:56:35.726Z,17.80
2022-10-13T02:59:03.660Z,16.10
2022-10-13T03:01:31.026Z,18.92
2022-10-13T03:03:58.531Z,17.30
2022-10-13T03:06:25.938Z,18.95
2022-10-13T03:08:53.441Z,19.05
2022-10-13T03:11:20.806Z,18.77
2022-10-13T03:13:48.104Z,19.33
2022-10-13T03:16:15.404Z,17.85
2022-10-13T03:18:42.686Z,18.17
2022-10-13T03:21:11.282Z,19.33
2022-10-13T03:23:38.564Z,18.05
2022-10-13T03:26:06.139Z,18.75
2022-10-13T03:28:34.377Z,18.65
2022-10-13T03:31:12.007Z,19.90
2022-10-13T03:33:41.058Z,19.42
2022-10-13T03:36:08.812Z,18.83
2022-10-13T03:38:36.990Z,18.98
2022-10-13T03:41:18.619Z,18.95
2022-10-13T03:43:46.206Z,19.08
2022-10-13T03:46:17.778Z,18.98
2022-10-13T03:48:46.828Z,17.70
2022-10-13T03:51:19.853Z,17.75
2022-10-13T03:53:50.441Z,19.25
2022-10-13T03:58:54.404Z,18.80
2022-10-13T04:01:29.912Z,18.63
2022-10-13T04:04:02.347Z,20.25
2022-10-13T04:06:30.969Z,20.02
2022-10-13T04:08:59.054Z,18.50
2022-10-13T04:11:26.501Z,20.27
2022-10-13T04:13:55.723Z,20.65
2022-10-13T04:16:29.293Z,19.90
2022-10-13T04:19:04.806Z,19.08
2022-10-13T04:21:34.717Z,19.35
2022-10-13T04:24:03.918Z,20.58
2022-10-13T04:26:36.582Z,20.98
2022-10-13T04:29:07.337Z,20.58
2022-10-13T04:31:35.317Z,19.83
2022-10-13T04:34:02.637Z,19.38
2022-10-13T04:36:30.211Z,19.67
2022-10-13T04:38:57.550Z,18.58
2022-10-13T04:41:25.861Z,20.13
2022-10-13T04:43:54.588Z,18.65
2022-10-13T04:46:27.326Z,20.25
2022-10-13T04:48:55.658Z,19.73
2022-10-13T04:51:26.117Z,19.63
2022-10-13T04:54:03.193Z,20.63
2022-10-13T04:56:30.565Z,20.13
2022-10-13T04:58:58.107Z,19.63
2022-10-13T05:01:26.546Z,18.77
2022-10-13T05:04:01.429Z,20.77
2022-10-13T05:06:35.833Z,19.88
2022-10-13T05:09:04.052Z,20.98
2022-10-13T05:11:32.078Z,20.98
2022-10-13T05:14:01.268Z,22.33
2022-10-13T05:16:30.585Z,22.42
2022-10-13T05:18:57.946Z,21.40
2022-10-13T05:21:29.957Z,23.42
2022-10-13T05:23:58.379Z,21.77
2022-10-13T05:26:31.908Z,22.33
2022-10-13T05:29:01.781Z,22.13
2022-10-13T05:31:36.253Z,20.08
2022-10-13T05:34:04.183Z,21.77
2022-10-13T05:36:35.153Z,19.70
2022-10-13T05:39:07.627Z,22.00
2022-10-13T05:41:34.940Z,21.30
2022-10-13T05:44:08.670Z,21.65
2022-10-13T05:46:36.673Z,19.88
2022-10-13T05:49:04.415Z,20.25
2022-10-13T05:51:42.626Z,22.65
2022-10-13T05:54:36.570Z,21.77
2022-10-13T05:57:31.431Z,20.70
2022-10-13T06:00:25.026Z,21.52
2022-10-13T06:03:11.823Z,20.17
2022-10-13T06:05:40.689Z,22.00
2022-10-13T06:08:08.779Z,21.75
2022-10-13T06:10:38.191Z,22.25
2022-10-13T06:13:05.549Z,21.33
2022-10-13T06:15:32.966Z,21.38
2022-10-13T06:18:00.876Z,20.80
2022-10-13T06:20:39.716Z,21.33
2022-10-13T06:23:10.131Z,21.20
2022-10-13T06:25:37.429Z,19.98
2022-10-13T06:28:04.870Z,21.98
2022-10-13T06:30:32.142Z,21.58
2022-10-13T06:33:01.377Z,22.45
2022-10-13T06:35:28.675Z,21.35
2022-10-13T06:37:57.488Z,22.40
2022-10-13T06:40:24.755Z,21.40
2022-10-13T06:42:52.088Z,22.75
2022-10-13T06:45:19.532Z,23.80
2022-10-13T06:47:46.976Z,23.58
2022-10-13T06:50:14.486Z,21.85
2022-10-13T06:52:43.506Z,24.35
2022-10-13T06:55:33.951Z,22.33
2022-10-13T06:58:01.297Z,23.38
2022-10-13T07:00:28.597Z,22.10
2022-10-13T07:02:56.037Z,22.42
2022-10-13T07:05:23.394Z,22.45
2022-10-13T07:07:54.066Z,21.83
2022-10-13T07:12:48.745Z,20.58
2022-10-13T07:15:16.197Z,22.75
2022-10-13T07:17:43.581Z,21.02
2022-10-13T07:20:11.581Z,20.90
2022-10-13T07:22:38.850Z,21.63
2022-10-13T07:25:07.565Z,20.60
2022-10-13T07:27:35.832Z,21.50
2022-10-13T07:30:03.537Z,21.08
2022-10-13T07:32:32.269Z,21.98
2022-10-13T07:34:59.784Z,19.58
2022-10-13T07:37:27.292Z,18.27
2022-10-13T07:39:54.625Z,18.50
2022-10-13T07:42:21.977Z,16.55
2022-10-13T07:44:49.233Z,16.90
2022-10-13T07:47:16.608Z,16.90
2022-10-13T07:49:44.829Z,17.77
2022-10-13T07:52:12.181Z,17.65
2022-10-13T07:54:39.488Z,18.10
2022-10-13T07:57:06.846Z,16.90
2022-10-13T07:59:34.406Z,16.88
2022-10-13T08:02:02.935Z,16.90
2022-10-13T08:04:34.341Z,17.33
2022-10-13T08:07:03.332Z,17.92
2022-10-13T08:09:30.639Z,18.55
2022-10-13T08:12:00.951Z,18.30
2022-10-13T08:14:31.190Z,15.73
2022-10-13T08:16:58.809Z,16.45
2022-10-13T08:19:26.626Z,15.95
2022-10-13T08:21:59.601Z,16.25
2022-10-13T08:24:28.391Z,18.48
2022-10-13T08:26:56.902Z,19.83
2022-10-13T08:29:24.799Z,18.50
2022-10-13T08:31:54.605Z,19.75
2022-10-13T08:34:24.307Z,17.47
2022-10-13T08:36:56.933Z,18.98
2022-10-13T08:39:25.161Z,18.95
2022-10-13T08:41:54.863Z,19.80
2022-10-13T08:47:46.877Z,18.77
2022-10-13T08:50:26.677Z,18.55
2022-10-13T08:53:16.768Z,19.50
2022-10-13T08:55:51.945Z,18.90
2022-10-13T08:58:35.038Z,17.33
2022-10-13T09:01:29.035Z,18.30
2022-10-13T09:04:41.620Z,18.90
2022-10-13T09:07:32.368Z,18.08
2022-10-13T09:10:26.486Z,19.65
2022-10-13T09:13:11.852Z,20.63
2022-10-13T09:15:58.903Z,19.35
2022-10-13T09:18:41.414Z,18.67
2022-10-13T09:21:58.460Z,19.65
2022-10-13T09:25:06.758Z,19.98
2022-10-13T09:28:17.466Z,19.35
2022-10-13T09:30:48.226Z,19.17
2022-10-13T09:33:50.650Z,19.13
2022-10-13T09:37:08.165Z,16.48
2022-10-13T09:40:25.706Z,18.38
2022-10-13T09:43:23.377Z,18.48
2022-10-13T09:46:53.738Z,17.92
2022-10-13T09:50:08.656Z,17.63
2022-10-13T09:53:41.841Z,15.95
2022-10-13T10:01:17.867Z,19.20
2022-10-13T10:04:33.965Z,19.58
2022-10-13T10:08:07.326Z,20.13
2022-10-13T10:10:58.169Z,17.77
2022-10-13T10:14:15.491Z,20.17
2022-10-13T10:17:50.329Z,20.58
2022-10-13T10:25:51.819Z,16.67
2022-10-13T10:29:27.535Z,14.95
2022-10-13T10:33:23.725Z,14.48
2022-10-13T10:37:03.972Z,12.73
2022-10-13T10:45:04.127Z,11.07
2022-10-13T10:48:46.135Z,12.55
2022-10-13T10:51:40.433Z,9.30
2022-10-13T10:55:46.214Z,9.90
2022-10-13T11:10:04.503Z,11.38
2022-10-13T11:20:48.916Z,11.15
2022-10-13T11:24:07.263Z,10.98
2022-10-13T11:27:23.158Z,10.73
2022-10-13T11:30:49.951Z,10.23
2022-10-13T11:34:08.770Z,10.02
2022-10-13T11:37:27.429Z,9.55
2022-10-13T11:41:18.039Z,8.95
2022-10-13T11:44:55.540Z,9.35
2022-10-13T11:49:13.389Z,8.77
2022-10-13T11:52:29.102Z,7.78
2022-10-13T11:56:30.626Z,8.93
2022-10-13T11:59:52.572Z,7.13
2022-10-13T12:02:34.229Z,7.50
2022-10-13T12:05:29.462Z,6.38
2022-10-13T12:08:04.192Z,8.15
2022-10-13T12:10:37.963Z,7.97
2022-10-13T12:13:05.609Z,8.73
2022-10-13T12:15:39.748Z,6.88
2022-10-13T12:18:34.316Z,7.28
2022-10-13T12:21:20.556Z,6.78
2022-10-13T12:23:51.992Z,6.43
2022-10-13T12:26:25.240Z,6.28
2022-10-13T12:29:02.529Z,5.47
2022-10-13T12:31:48.635Z,5.25
2022-10-13T12:34:34.293Z,5.40
2022-10-13T12:37:27.094Z,4.30
2022-10-13T12:39:58.247Z,4.38
2022-10-13T12:42:36.081Z,3.80
2022-10-13T12:45:04.875Z,3.97
2022-10-13T12:50:36.483Z,3.60
2022-10-13T12:53:08.784Z,3.92
2022-10-13T12:55:53.543Z,3.88
2022-10-13T12:58:33.865Z,4.10
2022-10-13T13:01:13.332Z,4.18
2022-10-13T13:03:43.246Z,4.88
2022-10-13T13:06:16.659Z,4.00
2022-10-13T13:08:44.112Z,3.80
2022-10-13T13:11:37.982Z,4.65
2022-10-13T13:14:38.709Z,3.58
2022-10-13T13:20:33.929Z,3.42
2022-10-13T13:23:01.318Z,4.85
2022-10-13T13:25:28.701Z,3.72
2022-10-13T13:27:56.037Z,3.95
2022-10-13T13:30:25.158Z,5.18
2022-10-13T13:32:52.561Z,3.92
2022-10-13T13:35:19.946Z,4.60
2022-10-13T13:37:52.235Z,4.28
2022-10-13T13:40:25.640Z,3.78
2022-10-13T13:42:54.277Z,4.05
2022-10-13T13:45:27.360Z,4.25
2022-10-13T13:47:59.510Z,3.45
2022-10-13T13:50:36.595Z,3.97
2022-10-13T13:53:05.570Z,3.63
2022-10-13T13:55:33.282Z,4.45
2022-10-13T13:58:00.629Z,3.78
2022-10-13T14:00:27.954Z,4.43
2022-10-13T14:02:58.683Z,4.22
2022-10-13T14:05:26.616Z,4.88
2022-10-13T14:07:57.891Z,4.90
2022-10-13T14:10:26.830Z,5.20
2022-10-13T14:12:54.120Z,4.85
2022-10-13T14:15:23.392Z,4.55
2022-10-13T14:17:54.664Z,5.43
2022-10-13T14:20:22.490Z,4.88
2022-10-13T14:22:50.354Z,4.85
2022-10-13T14:25:17.782Z,5.10
2022-10-13T14:27:45.876Z,5.53
2022-10-13T14:30:14.495Z,5.30
2022-10-13T14:32:41.830Z,5.57
2022-10-13T14:35:09.638Z,5.68
2022-10-13T14:37:37.269Z,4.95
2022-10-13T14:40:05.810Z,5.35
2022-10-13T14:42:33.086Z,5.72
2022-10-13T14:45:00.396Z,5.40
2022-10-13T14:47:28.007Z,5.40
2022-10-13T14:49:55.411Z,6.30
2022-10-13T14:52:22.724Z,5.30
2022-10-13T14:54:50.361Z,5.13
2022-10-13T14:57:18.069Z,5.32
2022-10-13T14:59:47.275Z,5.57
2022-10-13T15:02:14.794Z,6.05
2022-10-13T15:04:42.281Z,6.28
2022-10-13T15:07:09.646Z,5.55
2022-10-13T15:09:52.875Z,6.13
2022-10-13T15:12:24.344Z,5.93
2022-10-13T15:14:51.637Z,5.35
2022-10-13T15:17:18.946Z,6.05
2022-10-13T15:19:46.320Z,6.07
2022-10-13T15:22:14.813Z,6.47
2022-10-13T15:24:43.356Z,6.20
2022-10-13T15:27:10.659Z,6.93
2022-10-13T15:29:37.953Z,6.20
2022-10-13T15:32:18.281Z,6.85
2022-10-13T15:34:46.268Z,7.32
2022-10-13T15:37:13.816Z,6.93
2022-10-13T15:39:41.197Z,6.38
2022-10-13T15:42:10.379Z,5.72
2022-10-13T15:45:08.295Z,6.70
2022-10-13T15:47:25.439Z,5.95
2022-10-13T15:49:52.719Z,5.75
2022-10-13T15:52:20.852Z,5.93
2022-10-13T15:54:52.988Z,5.18
2022-10-13T15:57:20.282Z,5.85
2022-10-13T15:59:47.602Z,4.82
2022-10-13T16:02:14.916Z,5.38
2022-10-13T16:04:42.198Z,5.53
2022-10-13T16:07:09.505Z,5.28
2022-10-13T16:09:36.780Z,5.50
2022-10-13T16:12:04.334Z,5.13
2022-10-13T16:14:31.767Z,5.28
2022-10-13T16:16:59.913Z,4.78
2022-10-13T16:19:27.259Z,5.10
2022-10-13T16:21:54.576Z,5.05
2022-10-13T16:24:21.927Z,5.45
2022-10-13T16:26:49.214Z,5.90
2022-10-13T16:29:16.605Z,5.75
2022-10-13T16:31:44.179Z,4.95
2022-10-13T16:34:11.750Z,5.22
2022-10-13T16:36:39.041Z,5.90
2022-10-13T16:39:06.393Z,4.90
2022-10-13T16:41:33.724Z,4.70
2022-10-13T16:44:01.046Z,4.90
2022-10-13T16:46:29.065Z,5.63
2022-10-13T16:48:56.581Z,4.75
2022-10-13T16:51:27.030Z,5.38
2022-10-13T16:56:32.633Z,5.38
2022-10-13T16:59:04.691Z,5.75
2022-10-13T17:01:34.732Z,5.75
2022-10-13T17:04:04.970Z,6.22
2022-10-13T17:06:32.656Z,5.93
2022-10-13T17:09:03.254Z,6.35
2022-10-13T17:11:33.946Z,5.38
2022-10-13T17:14:01.933Z,6.20
2022-10-13T17:16:30.041Z,5.50
2022-10-13T17:18:57.528Z,5.90
2022-10-13T17:21:25.012Z,5.60
2022-10-13T17:23:54.380Z,5.50
2022-10-13T17:26:21.689Z,6.32
2022-10-13T17:28:49.089Z,6.18
2022-10-13T17:31:23.754Z,5.63
2022-10-13T17:33:51.970Z,4.93
2022-10-13T17:36:31.852Z,5.93
2022-10-13T17:39:07.863Z,6.22
2022-10-13T17:41:36.574Z,5.63
2022-10-13T17:44:04.171Z,6.15
2022-10-13T17:46:40.116Z,6.13
2022-10-13T17:49:12.253Z,5.72
2022-10-13T17:51:42.894Z,6.93
2022-10-13T17:54:16.145Z,6.07
2022-10-13T17:56:45.325Z,5.60
2022-10-13T17:59:16.058Z,6.15
2022-10-13T18:01:45.107Z,6.30
2022-10-13T18:04:18.666Z,6.70
2022-10-13T18:06:46.449Z,6.85
2022-10-13T18:09:20.890Z,7.00
2022-10-13T18:11:51.557Z,7.05
2022-10-13T18:14:22.498Z,7.53
2022-10-13T18:16:52.358Z,7.35
2022-10-13T18:19:21.435Z,6.45
2022-10-13T18:21:49.329Z,6.47
2022-10-13T18:24:16.702Z,6.85
2022-10-13T18:26:43.972Z,7.85
2022-10-13T18:29:13.013Z,7.00
2022-10-13T18:31:42.429Z,7.15
2022-10-13T18:34:16.944Z,7.22
2022-10-13T18:36:54.888Z,7.00
2022-10-13T18:39:28.634Z,7.53
2022-10-13T18:41:57.822Z,8.18
2022-10-13T18:44:25.301Z,8.75
2022-10-13T18:46:56.340Z,9.10
2022-10-13T18:49:31.092Z,7.20
2022-10-13T18:52:02.339Z,7.63
2022-10-13T18:54:31.661Z,8.85
2022-10-13T18:56:59.092Z,7.35
2022-10-13T18:59:27.435Z,7.88
2022-10-13T19:01:54.934Z,8.70
2022-10-13T19:04:22.445Z,8.48
2022-10-13T19:06:49.864Z,8.50
2022-10-13T19:09:17.574Z,8.77
2022-10-13T19:11:45.089Z,8.48
2022-10-13T19:14:13.534Z,9.40
2022-10-13T19:16:43.684Z,9.50
2022-10-13T19:19:11.824Z,9.60
2022-10-13T19:21:40.522Z,8.82
2022-10-13T19:24:09.784Z,8.43
2022-10-13T19:26:37.714Z,7.43
2022-10-13T19:29:14.727Z,7.85
2022-10-13T19:31:43.908Z,7.88
2022-10-13T19:34:13.632Z,8.15
2022-10-13T19:36:46.175Z,9.82
2022-10-13T19:39:25.694Z,8.43
2022-10-13T19:41:57.489Z,8.85
2022-10-13T19:44:25.738Z,8.25
2022-10-13T19:46:54.138Z,7.72
2022-10-13T19:49:26.270Z,8.65
2022-10-13T19:51:54.226Z,7.95
2022-10-13T19:54:22.261Z,8.45
2022-10-13T19:56:51.913Z,7.28
2022-10-13T19:59:20.245Z,8.47
2022-10-13T20:01:48.243Z,8.68
2022-10-13T20:04:21.173Z,8.80
2022-10-13T20:06:50.911Z,9.95
2022-10-13T20:09:19.648Z,8.68
2022-10-13T20:11:52.377Z,9.15
2022-10-13T20:14:19.956Z,10.32
2022-10-13T20:16:48.706Z,8.10
2022-10-13T20:19:19.680Z,9.18
2022-10-13T20:21:48.070Z,9.13
2022-10-13T20:24:15.964Z,9.35
2022-10-13T20:26:43.396Z,9.98
2022-10-13T20:29:11.152Z,9.13
2022-10-13T20:31:38.724Z,9.20
2022-10-13T20:34:06.288Z,9.25
2022-10-13T20:36:38.550Z,9.55
2022-10-13T20:39:09.118Z,8.40
2022-10-13T20:41:36.872Z,8.52
2022-10-13T20:44:04.720Z,9.30
2022-10-13T20:46:32.999Z,9.70
2022-10-13T20:49:15.804Z,8.50
2022-10-13T20:51:45.252Z,9.10
2022-10-13T20:54:15.388Z,9.35
2022-10-13T20:56:43.480Z,8.90
2022-10-13T20:59:15.456Z,9.02
2022-10-13T21:01:43.179Z,9.38
2022-10-13T21:04:11.222Z,9.80
2022-10-13T21:06:38.802Z,9.52
2022-10-13T21:09:08.575Z,10.13
2022-10-13T21:11:36.609Z,10.23
2022-10-13T21:14:07.585Z,10.23
2022-10-13T21:16:36.459Z,9.57
2022-10-13T21:19:05.057Z,9.93
2022-10-13T21:21:34.977Z,9.27
2022-10-13T21:24:07.309Z,9.60
2022-10-13T21:26:36.146Z,9.90
2022-10-13T21:29:04.387Z,9.48
2022-10-13T21:31:31.789Z,9.65
2022-10-13T21:33:59.438Z,11.35
2022-10-13T21:36:32.696Z,11.05
2022-10-13T21:39:05.963Z,10.68
2022-10-13T21:41:33.530Z,11.02
2022-10-13T21:44:00.805Z,11.27
2022-10-13T21:46:34.892Z,9.07
2022-10-13T21:49:05.780Z,11.27
2022-10-13T21:51:40.420Z,10.95
2022-10-13T21:54:13.853Z,11.63
2022-10-13T21:56:42.268Z,11.93
2022-10-13T21:59:12.944Z,12.70
2022-10-13T22:01:50.537Z,11.88
2022-10-13T22:04:29.379Z,11.88
2022-10-13T22:07:07.049Z,11.18
2022-10-13T22:09:44.609Z,12.48
2022-10-13T22:12:22.211Z,11.50
2022-10-13T22:14:59.768Z,11.60
2022-10-13T22:17:44.177Z,12.90
2022-10-13T22:20:21.770Z,11.75
2022-10-13T22:23:00.434Z,11.77
2022-10-13T22:25:46.257Z,10.75
2022-10-13T22:28:24.343Z,11.68
2022-10-13T22:31:13.026Z,10.73
2022-10-13T22:33:53.708Z,10.98
2022-10-13T22:36:31.716Z,10.57
2022-10-13T22:39:10.646Z,11.38
2022-10-13T22:41:48.180Z,10.68
2022-10-13T22:44:25.829Z,10.25
2022-10-13T22:47:03.345Z,10.00
2022-10-13T22:49:40.890Z,10.45
2022-10-13T22:52:18.494Z,10.30
2022-10-13T22:54:58.402Z,10.82
2022-10-13T22:57:37.557Z,9.43
2022-10-13T23:00:16.691Z,9.98
2022-10-13T23:02:54.636Z,10.05
2022-10-13T23:05:32.619Z,9.35
2022-10-13T23:08:11.168Z,9.77
2022-10-13T23:10:49.052Z,10.52
2022-10-13T23:13:26.852Z,10.23
2022-10-13T23:16:09.208Z,10.05
2022-10-13T23:18:47.457Z,10.32
2022-10-13T23:21:29.469Z,10.93
2022-10-13T23:24:08.352Z,11.38
2022-10-13T23:26:45.896Z,11.40
2022-10-13T23:29:23.972Z,11.35
2022-10-13T23:32:03.404Z,11.15
2022-10-13T23:34:43.911Z,10.30
2022-10-13T23:37:21.771Z,11.25
2022-10-13T23:39:59.583Z,10.45
2022-10-13T23:42:37.993Z,12.32
2022-10-13T23:45:15.627Z,10.90
2022-10-13T23:47:53.140Z,10.88
2022-10-13T23:50:30.650Z,11.43
2022-10-13T23:53:09.795Z,11.70
2022-10-13T23:55:47.305Z,11.88
2022-10-13T23:58:25.190Z,11.82
